sensor_id;sensor_type;location;lat;lon;timestamp;pressure;altitude;pressure_sealevel;temperature;humidity
71956;BME280;59829;50.562;6.258;2023-02-18T00:05:12;96432.94;;;10.27;100.00
71956;BME280;59829;50.562;6.258;2023-02-18T00:15:13;96439.03;;;10.37;100.00
71956;BME280;59829;50.562;6.258;2023-02-18T00:25:13;96445.09;;;10.36;100.00
71956;BME280;59829;50.562;6.258;2023-02-18T00:35:13;96437.16;;;10.52;100.00
71956;BME280;59829;50.562;6.258;2023-02-18T00:45:14;96414.44;;;10.47;100.00
71956;BME280;59829;50.562;6.258;2023-02-18T00:55:14;96389.03;;;10.44;100.00
71956;BME280;59829;50.562;6.258;2023-02-18T01:05:15;96391.81;;;10.41;100.00
71956;BME280;59829;50.562;6.258;2023-02-18T01:15:16;96366.72;;;10.34;100.00
71956;BME280;59829;50.562;6.258;2023-02-18T01:25:16;96367.72;;;10.44;100.00
71956;BME280;59829;50.562;6.258;2023-02-18T01:35:18;96363.22;;;10.47;100.00
71956;BME280;59829;50.562;6.258;2023-02-18T01:45:49;96339.59;;;10.31;100.00
71956;BME280;59829;50.562;6.258;2023-02-18T01:55:50;96341.22;;;10.32;100.00
71956;BME280;59829;50.562;6.258;2023-02-18T02:05:50;96337.84;;;10.19;100.00
71956;BME280;59829;50.562;6.258;2023-02-18T02:16:08;96337.66;;;10.22;100.00
71956;BME280;59829;50.562;6.258;2023-02-18T02:36:54;96288.88;;;10.36;100.00
71956;BME280;59829;50.562;6.258;2023-02-18T02:47:01;96294.44;;;10.30;100.00
71956;BME280;59829;50.562;6.258;2023-02-18T03:18:16;96262.06;;;10.29;100.00
71956;BME280;59829;50.562;6.258;2023-02-18T03:28:23;96242.88;;;10.35;100.00
71956;BME280;59829;50.562;6.258;2023-02-18T03:38:37;96210.28;;;10.25;100.00
71956;BME280;59829;50.562;6.258;2023-02-18T03:48:39;96216.94;;;10.39;100.00
71956;BME280;59829;50.562;6.258;2023-02-18T03:58:39;96224.72;;;10.38;100.00
71956;BME280;59829;50.562;6.258;2023-02-18T04:08:39;96220.69;;;9.98;100.00
71956;BME280;59829;50.562;6.258;2023-02-18T04:18:40;96213.25;;;9.95;100.00
71956;BME280;59829;50.562;6.258;2023-02-18T04:28:40;96201.59;;;9.91;100.00
71956;BME280;59829;50.562;6.258;2023-02-18T04:38:40;96202.00;;;9.85;100.00
71956;BME280;59829;50.562;6.258;2023-02-18T04:48:42;96184.34;;;9.70;100.00
71956;BME280;59829;50.562;6.258;2023-02-18T04:58:42;96173.75;;;9.87;100.00
71956;BME280;59829;50.562;6.258;2023-02-18T05:08:42;96161.28;;;9.82;100.00
71956;BME280;59829;50.562;6.258;2023-02-18T05:18:43;96158.66;;;9.71;100.00
71956;BME280;59829;50.562;6.258;2023-02-18T05:28:43;96171.97;;;9.76;100.00
71956;BME280;59829;50.562;6.258;2023-02-18T05:38:43;96151.72;;;9.73;100.00
71956;BME280;59829;50.562;6.258;2023-02-18T05:48:44;96158.94;;;9.79;100.00
71956;BME280;59829;50.562;6.258;2023-02-18T05:58:44;96160.72;;;9.66;100.00
71956;BME280;59829;50.562;6.258;2023-02-18T06:08:44;96151.16;;;9.57;100.00
71956;BME280;59829;50.562;6.258;2023-02-18T06:18:45;96129.13;;;9.30;100.00
71956;BME280;59829;50.562;6.258;2023-02-18T06:28:45;96120.72;;;9.41;100.00
71956;BME280;59829;50.562;6.258;2023-02-18T06:38:45;96118.00;;;9.31;100.00
71956;BME280;59829;50.562;6.258;2023-02-18T06:48:46;96096.34;;;9.24;100.00
71956;BME280;59829;50.562;6.258;2023-02-18T06:58:46;96079.03;;;9.04;100.00
71956;BME280;59829;50.562;6.258;2023-02-18T07:08:46;96079.50;;;9.09;100.00
71956;BME280;59829;50.562;6.258;2023-02-18T07:18:47;96069.28;;;9.09;100.00
71956;BME280;59829;50.562;6.258;2023-02-18T07:28:47;96092.84;;;8.89;100.00
71956;BME280;59829;50.562;6.258;2023-02-18T07:38:47;96095.53;;;8.74;100.00
71956;BME280;59829;50.562;6.258;2023-02-18T07:48:48;96110.03;;;8.87;100.00
71956;BME280;59829;50.562;6.258;2023-02-18T07:58:48;96089.00;;;8.58;100.00
71956;BME280;59829;50.562;6.258;2023-02-18T08:08:48;96111.25;;;8.56;100.00
71956;BME280;59829;50.562;6.258;2023-02-18T08:18:50;96127.50;;;8.42;100.00
71956;BME280;59829;50.562;6.258;2023-02-18T08:28:51;96126.53;;;8.30;100.00
71956;BME280;59829;50.562;6.258;2023-02-18T08:38:51;96133.38;;;8.30;100.00
71956;BME280;59829;50.562;6.258;2023-02-18T08:48:52;96141.84;;;8.30;100.00
71956;BME280;59829;50.562;6.258;2023-02-18T08:58:52;96139.59;;;8.26;100.00
71956;BME280;59829;50.562;6.258;2023-02-18T09:08:52;96139.75;;;8.37;100.00
71956;BME280;59829;50.562;6.258;2023-02-18T09:18:53;96155.88;;;8.50;100.00
71956;BME280;59829;50.562;6.258;2023-02-18T09:28:55;96155.81;;;8.52;100.00
71956;BME280;59829;50.562;6.258;2023-02-18T09:38:55;96147.63;;;8.34;100.00
71956;BME280;59829;50.562;6.258;2023-02-18T09:48:56;96159.34;;;8.36;100.00
71956;BME280;59829;50.562;6.258;2023-02-18T09:58:58;96136.16;;;8.39;100.00
71956;BME280;59829;50.562;6.258;2023-02-18T10:09:05;96149.25;;;8.60;100.00
71956;BME280;59829;50.562;6.258;2023-02-18T10:19:21;96145.75;;;8.49;100.00
71956;BME280;59829;50.562;6.258;2023-02-18T10:29:23;96145.78;;;8.61;100.00
71956;BME280;59829;50.562;6.258;2023-02-18T10:49:55;96144.16;;;8.60;100.00
71956;BME280;59829;50.562;6.258;2023-02-18T11:00:01;96150.91;;;8.74;100.00
71956;BME280;59829;50.562;6.258;2023-02-18T11:10:17;96139.88;;;8.73;100.00
71956;BME280;59829;50.562;6.258;2023-02-18T11:30:30;96132.50;;;8.82;100.00
71956;BME280;59829;50.562;6.258;2023-02-18T11:40:35;96141.06;;;8.81;100.00
71956;BME280;59829;50.562;6.258;2023-02-18T11:50:35;96128.84;;;8.86;100.00
71956;BME280;59829;50.562;6.258;2023-02-18T12:00:40;96146.28;;;8.92;100.00
71956;BME280;59829;50.562;6.258;2023-02-18T12:10:46;96130.25;;;8.90;100.00
71956;BME280;59829;50.562;6.258;2023-02-18T12:51:34;96137.28;;;8.99;100.00
71956;BME280;59829;50.562;6.258;2023-02-18T13:01:45;96135.34;;;9.02;100.00
71956;BME280;59829;50.562;6.258;2023-02-18T13:12:00;96149.84;;;9.02;100.00
71956;BME280;59829;50.562;6.258;2023-02-18T13:22:05;96152.50;;;9.13;100.00
